Time;durP1;ratioP1;P1;durP2;ratioP2;P2;SDS_P1;SDS_P2;PMS_P1;PMS_P2;Temp;Humidity;BMP_temperature;BMP_pressure;BME280_temperature;BME280_humidity;BME280_pressure;Samples;Min_cycle;Max_cycle;Signal;HPM_P1;HPM_P2
2022/11/05 00:09:32;;;;;;;17.17;8.03;;;;;;;;;;5082861;28;20188;-68
2022/11/05 00:17:57;;;;;;;14.80;7.87;;;;;;;;;;5047609;28;20196;-68
2022/11/05 00:20:23;;;;;;;21.03;8.13;;;;;;;;;;5039229;28;20182;-68
2022/11/05 00:25:32;;;;;;;16.37;8.63;;;;;;;;;;5075807;28;20751;-68
2022/11/05 00:28:02;;;;;;;18.53;9.50;;;;;;;;;;5071844;28;20287;-68
2022/11/05 00:30:28;;;;;;;22.07;9.33;;;;;;;;;;5075219;28;20556;-69
2022/11/05 00:32:59;;;;;;;18.80;8.30;;;;;;;;;;5079845;28;20224;-69
2022/11/05 00:35:24;;;;;;;19.53;10.80;;;;;;;;;;5076916;28;20268;-69
2022/11/05 00:37:52;;;;;;;18.00;8.87;;;;;;;;;;5078366;28;20266;-68
2022/11/05 00:40:17;;;;;;;19.30;9.97;;;;;;;;;;5073652;28;20188;-68
2022/11/05 00:45:29;;;;;;;18.03;10.00;;;;;;;;;;5070802;28;20235;-68
2022/11/05 00:50:38;;;;;;;23.37;10.10;;;;;;;;;;5090599;28;20671;-68
2022/11/05 00:53:05;;;;;;;22.07;10.70;;;;;;;;;;5077980;28;20180;-68
2022/11/05 00:55:32;;;;;;;20.67;10.87;;;;;;;;;;5084995;28;20550;-68
2022/11/05 00:57:58;;;;;;;21.50;10.87;;;;;;;;;;5069350;28;20268;-68
2022/11/05 01:00:25;;;;;;;22.97;10.50;;;;;;;;;;5082796;28;20260;-68
2022/11/05 01:02:50;;;;;;;21.63;11.37;;;;;;;;;;5083723;28;20206;-68
2022/11/05 01:05:16;;;;;;;19.23;10.27;;;;;;;;;;5081171;28;20251;-68
2022/11/05 01:07:41;;;;;;;18.43;9.97;;;;;;;;;;5072286;28;20787;-67
2022/11/05 01:10:07;;;;;;;22.17;11.27;;;;;;;;;;5084541;28;20192;-68
2022/11/05 01:12:33;;;;;;;20.53;9.73;;;;;;;;;;5078497;28;20180;-68
2022/11/05 01:14:59;;;;;;;14.53;9.57;;;;;;;;;;5080037;28;20181;-68
2022/11/05 01:17:25;;;;;;;19.93;9.10;;;;;;;;;;5081744;28;20168;-68
2022/11/05 01:19:50;;;;;;;16.90;8.67;;;;;;;;;;5068067;28;20215;-68
2022/11/05 01:22:15;;;;;;;19.33;9.70;;;;;;;;;;5074568;28;20185;-67
2022/11/05 01:24:40;;;;;;;18.10;9.23;;;;;;;;;;5078867;28;20188;-67
2022/11/05 01:27:06;;;;;;;16.07;8.97;;;;;;;;;;5078004;28;20177;-67
2022/11/05 01:29:31;;;;;;;17.60;9.27;;;;;;;;;;5078119;28;20180;-67
2022/11/05 01:31:56;;;;;;;19.50;9.07;;;;;;;;;;5081523;28;20235;-67
2022/11/05 01:34:22;;;;;;;21.03;8.87;;;;;;;;;;5075413;28;20191;-67
2022/11/05 01:36:47;;;;;;;15.80;8.37;;;;;;;;;;5078095;28;20283;-68
2022/11/05 01:39:13;;;;;;;14.37;8.60;;;;;;;;;;5072983;28;20648;-68
2022/11/05 01:41:38;;;;;;;16.50;8.67;;;;;;;;;;5089944;28;20345;-68
2022/11/05 01:44:03;;;;;;;18.03;9.13;;;;;;;;;;5086022;28;20221;-68
2022/11/05 01:46:38;;;;;;;15.53;8.90;;;;;;;;;;5078695;28;20253;-68
2022/11/05 01:49:28;;;;;;;16.67;8.00;;;;;;;;;;5089434;28;20175;-68
2022/11/05 01:51:54;;;;;;;14.40;8.07;;;;;;;;;;5070276;28;20516;-68
2022/11/05 01:54:25;;;;;;;16.17;7.93;;;;;;;;;;5073899;28;20168;-68
2022/11/05 01:56:54;;;;;;;17.50;7.73;;;;;;;;;;5078015;28;20640;-68
2022/11/05 01:59:26;;;;;;;12.10;7.17;;;;;;;;;;5073376;28;20435;-68
2022/11/05 02:01:52;;;;;;;13.97;7.40;;;;;;;;;;5073951;28;20209;-68
2022/11/05 02:04:27;;;;;;;16.93;7.20;;;;;;;;;;5076609;28;20741;-68
2022/11/05 02:06:53;;;;;;;14.83;7.43;;;;;;;;;;5068961;28;20340;-68
2022/11/05 02:09:27;;;;;;;11.53;7.40;;;;;;;;;;5076651;28;20279;-67
2022/11/05 02:11:52;;;;;;;15.13;7.43;;;;;;;;;;5070045;28;20238;-67
2022/11/05 02:14:19;;;;;;;20.20;8.37;;;;;;;;;;5075940;28;20647;-67
2022/11/05 02:17:02;;;;;;;16.30;8.63;;;;;;;;;;5069364;28;20526;-67
2022/11/05 02:19:45;;;;;;;17.03;8.60;;;;;;;;;;5071936;28;20542;-68
2022/11/05 02:22:40;;;;;;;13.27;8.03;;;;;;;;;;5074398;28;20193;-67
2022/11/05 02:25:18;;;;;;;15.83;8.67;;;;;;;;;;5052019;28;20195;-67
2022/11/05 02:28:05;;;;;;;19.03;8.63;;;;;;;;;;5088764;28;20180;-67
2022/11/05 02:30:54;;;;;;;18.00;9.33;;;;;;;;;;5079436;28;20176;-67
2022/11/05 02:33:28;;;;;;;15.60;8.53;;;;;;;;;;5071392;28;20308;-68
2022/11/05 02:36:23;;;;;;;15.53;8.77;;;;;;;;;;5084791;28;20699;-67
2022/11/05 02:39:00;;;;;;;19.77;8.90;;;;;;;;;;5082236;28;20181;-69
2022/11/05 02:41:37;;;;;;;16.13;9.23;;;;;;;;;;5068711;28;20287;-68
2022/11/05 02:44:19;;;;;;;17.23;10.10;;;;;;;;;;5076059;28;20180;-68
2022/11/05 02:47:02;;;;;;;16.93;9.20;;;;;;;;;;5080815;28;20199;-68
2022/11/05 02:49:50;;;;;;;22.73;11.10;;;;;;;;;;5081865;28;20176;-67
2022/11/05 02:52:38;;;;;;;14.67;9.80;;;;;;;;;;5077501;28;20180;-68
2022/11/05 02:55:22;;;;;;;26.43;10.43;;;;;;;;;;5088113;28;20195;-67
2022/11/05 02:57:48;;;;;;;16.60;9.43;;;;;;;;;;5078803;28;20267;-68
2022/11/05 03:00:49;;;;;;;16.90;9.87;;;;;;;;;;5073769;28;20589;-68
2022/11/05 03:03:24;;;;;;;17.30;9.57;;;;;;;;;;5084636;28;20175;-68
2022/11/05 03:06:07;;;;;;;19.03;10.40;;;;;;;;;;5081394;28;20218;-67
2022/11/05 03:08:50;;;;;;;14.50;9.83;;;;;;;;;;5080743;28;20176;-67
2022/11/05 03:11:18;;;;;;;21.20;10.50;;;;;;;;;;5089418;28;20179;-67
2022/11/05 03:14:20;;;;;;;20.20;9.70;;;;;;;;;;5072038;28;20219;-67
2022/11/05 03:17:03;;;;;;;19.97;10.33;;;;;;;;;;5069804;28;20200;-67
2022/11/05 03:19:41;;;;;;;15.77;10.13;;;;;;;;;;5074424;28;20552;-67
2022/11/05 03:22:23;;;;;;;16.80;10.57;;;;;;;;;;5075484;28;20575;-69
2022/11/05 03:24:53;;;;;;;18.43;9.97;;;;;;;;;;5082585;28;20259;-68
2022/11/05 03:27:30;;;;;;;15.97;9.70;;;;;;;;;;5073664;28;20204;-67
2022/11/05 03:30:00;;;;;;;18.30;9.73;;;;;;;;;;5072737;28;20545;-68
2022/11/05 03:32:29;;;;;;;17.77;10.70;;;;;;;;;;5082476;28;20223;-68
2022/11/05 03:35:03;;;;;;;16.77;9.60;;;;;;;;;;5066123;28;20283;-68
2022/11/05 03:37:33;;;;;;;15.90;9.20;;;;;;;;;;5081105;28;20696;-67
2022/11/05 03:40:03;;;;;;;19.37;9.27;;;;;;;;;;5075127;28;20180;-67
2022/11/05 03:42:32;;;;;;;18.07;9.73;;;;;;;;;;5073802;28;20311;-68
2022/11/05 03:45:04;;;;;;;14.90;9.23;;;;;;;;;;5070236;28;20672;-68
2022/11/05 03:47:35;;;;;;;19.97;9.73;;;;;;;;;;5076199;28;20180;-67
2022/11/05 03:50:20;;;;;;;17.67;9.50;;;;;;;;;;5071232;28;20176;-67
2022/11/05 03:52:55;;;;;;;17.83;9.00;;;;;;;;;;5071091;28;20181;-69
2022/11/05 03:55:31;;;;;;;17.47;9.13;;;;;;;;;;5073130;28;20257;-68
2022/11/05 03:57:58;;;;;;;17.20;8.87;;;;;;;;;;5070403;28;20200;-67
2022/11/05 04:00:23;;;;;;;17.57;9.50;;;;;;;;;;5070583;28;20189;-69
2022/11/05 04:02:49;;;;;;;14.77;9.20;;;;;;;;;;5080060;28;20195;-67
2022/11/05 04:05:15;;;;;;;14.50;8.67;;;;;;;;;;5082221;28;20185;-69
2022/11/05 04:13:22;;;;;;;12.93;8.13;;;;;;;;;;5085273;28;20183;-69
2022/11/05 04:13:29;;;;;;;17.17;9.07;;;;;;;;;;5085389;28;20248;-68
2022/11/05 04:18:40;;;;;;;12.70;8.60;;;;;;;;;;5083172;28;20215;-69
2022/11/05 04:24:09;;;;;;;13.43;7.73;;;;;;;;;;5073263;28;20199;-70
2022/11/05 04:26:36;;;;;;;14.20;8.13;;;;;;;;;;5086134;28;20709;-69
2022/11/05 04:31:46;;;;;;;17.03;8.47;;;;;;;;;;5082346;28;20316;-69
2022/11/05 04:34:12;;;;;;;15.83;8.50;;;;;;;;;;5080634;28;20267;-69
2022/11/05 04:36:37;;;;;;;16.33;8.50;;;;;;;;;;5085319;28;20211;-70
2022/11/05 04:39:02;;;;;;;15.03;8.67;;;;;;;;;;5090880;28;20180;-69
2022/11/05 04:41:28;;;;;;;16.40;8.33;;;;;;;;;;5085636;28;20196;-69
2022/11/05 04:43:53;;;;;;;14.63;8.00;;;;;;;;;;5073366;28;20185;-69
2022/11/05 04:46:19;;;;;;;21.80;8.87;;;;;;;;;;5071286;28;20187;-69
2022/11/05 04:48:44;;;;;;;17.03;8.53;;;;;;;;;;5087138;28;20199;-69
2022/11/05 04:51:09;;;;;;;23.73;9.30;;;;;;;;;;5088457;28;20297;-69
2022/11/05 04:53:35;;;;;;;15.37;8.67;;;;;;;;;;5073964;28;20212;-70
2022/11/05 04:56:17;;;;;;;20.77;9.57;;;;;;;;;;5080255;28;20200;-69
2022/11/05 04:58:43;;;;;;;13.47;8.20;;;;;;;;;;5089508;28;20180;-69
2022/11/05 05:01:15;;;;;;;12.97;8.30;;;;;;;;;;5080074;28;20199;-69
2022/11/05 05:03:40;;;;;;;13.53;8.13;;;;;;;;;;5085741;28;20651;-69
2022/11/05 05:06:06;;;;;;;18.53;7.80;;;;;;;;;;5073535;28;20195;-69
2022/11/05 05:08:31;;;;;;;19.00;7.97;;;;;;;;;;5072778;28;20187;-69
2022/11/05 05:11:05;;;;;;;14.73;8.17;;;;;;;;;;5072203;28;20647;-69
2022/11/05 05:13:31;;;;;;;18.53;8.10;;;;;;;;;;5071582;28;20177;-69
2022/11/05 05:15:56;;;;;;;12.90;7.27;;;;;;;;;;5084670;28;20188;-69
2022/11/05 05:18:22;;;;;;;17.67;8.27;;;;;;;;;;5081817;28;20177;-69
2022/11/05 05:23:31;;;;;;;14.97;8.03;;;;;;;;;;5081609;28;20190;-69
2022/11/05 05:26:00;;;;;;;18.90;8.20;;;;;;;;;;5080396;28;20184;-69
2022/11/05 05:28:26;;;;;;;13.53;7.93;;;;;;;;;;5076913;28;20203;-69
2022/11/05 05:30:52;;;;;;;13.50;7.63;;;;;;;;;;5087870;28;20183;-69
2022/11/05 05:33:17;;;;;;;16.67;7.10;;;;;;;;;;5078424;28;20631;-69
2022/11/05 05:35:43;;;;;;;14.77;7.00;;;;;;;;;;5079582;28;20184;-70
2022/11/05 05:38:08;;;;;;;18.57;7.90;;;;;;;;;;5085488;28;20435;-70
2022/11/05 05:40:33;;;;;;;15.20;7.97;;;;;;;;;;5084864;28;20176;-69
2022/11/05 05:42:59;;;;;;;15.33;7.37;;;;;;;;;;5081048;28;20211;-70
2022/11/05 05:45:24;;;;;;;19.83;8.67;;;;;;;;;;5075962;28;20195;-70
2022/11/05 05:47:49;;;;;;;13.37;7.47;;;;;;;;;;5077657;28;20172;-69
2022/11/05 05:50:15;;;;;;;14.47;7.77;;;;;;;;;;5082655;28;20542;-69
2022/11/05 05:52:40;;;;;;;16.03;7.87;;;;;;;;;;5069485;28;20192;-69
2022/11/05 05:55:05;;;;;;;14.40;6.87;;;;;;;;;;5069417;28;20181;-70
2022/11/05 05:57:31;;;;;;;13.00;7.20;;;;;;;;;;5074607;28;20573;-70
2022/11/05 05:59:56;;;;;;;16.67;7.83;;;;;;;;;;5079532;28;20248;-70
2022/11/05 06:02:21;;;;;;;13.43;7.43;;;;;;;;;;5083987;28;20232;-70
2022/11/05 06:04:47;;;;;;;16.40;8.73;;;;;;;;;;5083976;28;20180;-69
2022/11/05 06:07:12;;;;;;;17.33;8.17;;;;;;;;;;5074437;28;20184;-69
2022/11/05 06:09:37;;;;;;;16.53;8.67;;;;;;;;;;5080577;28;20185;-69
2022/11/05 06:12:03;;;;;;;15.47;7.90;;;;;;;;;;5079645;28;20792;-70
2022/11/05 06:14:28;;;;;;;15.07;8.30;;;;;;;;;;5083149;28;20629;-70
2022/11/05 06:16:54;;;;;;;22.70;9.00;;;;;;;;;;5073024;28;20659;-69
2022/11/05 06:19:19;;;;;;;16.00;8.17;;;;;;;;;;5071576;28;20180;-69
2022/11/05 06:21:44;;;;;;;20.03;9.77;;;;;;;;;;5071537;28;20518;-69
2022/11/05 06:24:09;;;;;;;19.97;9.83;;;;;;;;;;5075747;28;20741;-69
2022/11/05 06:26:41;;;;;;;18.80;9.30;;;;;;;;;;5074911;28;20265;-69
2022/11/05 06:29:07;;;;;;;22.00;10.10;;;;;;;;;;5086499;28;20263;-69
2022/11/05 06:31:32;;;;;;;21.23;10.93;;;;;;;;;;5074619;28;20359;-70
2022/11/05 06:33:57;;;;;;;21.87;11.20;;;;;;;;;;5067253;28;20184;-69
2022/11/05 06:36:23;;;;;;;21.43;11.80;;;;;;;;;;5067857;28;20215;-69
2022/11/05 06:38:48;;;;;;;23.63;11.73;;;;;;;;;;5069346;28;20488;-69
2022/11/05 06:41:14;;;;;;;28.57;12.97;;;;;;;;;;5070272;28;20260;-70
2022/11/05 06:43:39;;;;;;;24.90;12.80;;;;;;;;;;5072298;28;20764;-70
2022/11/05 06:46:05;;;;;;;26.03;12.87;;;;;;;;;;5066730;28;20188;-70
2022/11/05 06:48:30;;;;;;;29.67;14.53;;;;;;;;;;5067743;28;20200;-70
2022/11/05 06:50:56;;;;;;;19.10;11.47;;;;;;;;;;5076442;28;21317;-69
2022/11/05 06:53:21;;;;;;;27.00;14.00;;;;;;;;;;5070166;28;20268;-69
2022/11/05 06:55:46;;;;;;;26.73;15.07;;;;;;;;;;5072549;28;20185;-69
2022/11/05 06:58:13;;;;;;;28.83;15.67;;;;;;;;;;5082877;28;20505;-69
2022/11/05 07:00:39;;;;;;;28.20;15.83;;;;;;;;;;5079675;28;20172;-69
2022/11/05 07:03:05;;;;;;;26.67;15.93;;;;;;;;;;5082869;28;20200;-69
2022/11/05 07:05:31;;;;;;;28.77;15.70;;;;;;;;;;5082402;28;20263;-69
2022/11/05 07:07:57;;;;;;;25.70;14.63;;;;;;;;;;5085279;28;20255;-69
2022/11/05 07:10:22;;;;;;;28.63;16.03;;;;;;;;;;5073486;28;20176;-70
2022/11/05 07:12:47;;;;;;;29.87;15.90;;;;;;;;;;5069593;28;20183;-69
2022/11/05 07:15:13;;;;;;;26.37;15.13;;;;;;;;;;5068466;28;20184;-69
2022/11/05 07:17:39;;;;;;;30.03;16.53;;;;;;;;;;5068471;28;20177;-69
2022/11/05 07:20:05;;;;;;;34.67;17.33;;;;;;;;;;5079022;28;20487;-70
2022/11/05 07:22:31;;;;;;;27.33;16.70;;;;;;;;;;5073275;28;20196;-70
2022/11/05 07:24:56;;;;;;;31.23;17.07;;;;;;;;;;5077030;28;20179;-70
2022/11/05 07:27:22;;;;;;;36.17;18.33;;;;;;;;;;5075370;28;20192;-70
2022/11/05 07:29:47;;;;;;;27.10;16.70;;;;;;;;;;5083316;28;20185;-69
2022/11/05 07:32:13;;;;;;;31.63;18.30;;;;;;;;;;5071075;28;20225;-69
2022/11/05 07:34:38;;;;;;;25.60;16.60;;;;;;;;;;5075579;28;20196;-69
2022/11/05 07:37:03;;;;;;;27.83;16.97;;;;;;;;;;5066819;28;20302;-69
2022/11/05 07:39:29;;;;;;;31.57;16.60;;;;;;;;;;5072111;28;20167;-69
2022/11/05 07:41:54;;;;;;;27.90;16.53;;;;;;;;;;5072242;28;20647;-69
2022/11/05 07:44:20;;;;;;;28.37;16.33;;;;;;;;;;5071935;28;20181;-69
2022/11/05 07:46:46;;;;;;;34.43;17.30;;;;;;;;;;5073062;28;20184;-70
2022/11/05 07:49:11;;;;;;;32.73;17.93;;;;;;;;;;5071357;28;20441;-70
2022/11/05 07:51:36;;;;;;;25.10;16.53;;;;;;;;;;5073184;28;20193;-70
2022/11/05 07:54:02;;;;;;;30.10;17.33;;;;;;;;;;5073748;28;20196;-69
2022/11/05 07:56:27;;;;;;;27.47;17.13;;;;;;;;;;5088595;28;20256;-69
2022/11/05 07:58:52;;;;;;;29.70;15.60;;;;;;;;;;5086642;28;20264;-69
2022/11/05 08:01:18;;;;;;;29.23;17.03;;;;;;;;;;5086210;28;20187;-69
2022/11/05 08:03:43;;;;;;;24.67;13.93;;;;;;;;;;5084334;28;20187;-69
2022/11/05 08:06:09;;;;;;;29.27;16.13;;;;;;;;;;5069288;28;20204;-69
2022/11/05 08:08:34;;;;;;;25.50;15.90;;;;;;;;;;5085801;28;20202;-69
2022/11/05 08:11:08;;;;;;;25.60;15.93;;;;;;;;;;5075734;28;20176;-69
2022/11/05 08:13:34;;;;;;;26.07;14.87;;;;;;;;;;5073434;28;20208;-69
2022/11/05 08:16:00;;;;;;;30.50;16.73;;;;;;;;;;5074339;28;20215;-69
2022/11/05 08:18:30;;;;;;;27.27;15.63;;;;;;;;;;5089917;28;20271;-69
2022/11/05 08:20:58;;;;;;;25.83;14.90;;;;;;;;;;5078087;28;20191;-69
2022/11/05 08:23:23;;;;;;;22.33;14.13;;;;;;;;;;5077362;28;20556;-69
2022/11/05 08:25:49;;;;;;;27.17;16.37;;;;;;;;;;5074969;28;20184;-69
2022/11/05 08:28:14;;;;;;;28.13;17.07;;;;;;;;;;5082124;28;20184;-69
2022/11/05 08:30:39;;;;;;;31.27;16.73;;;;;;;;;;5071712;28;20212;-69
2022/11/05 08:33:08;;;;;;;24.93;16.30;;;;;;;;;;5079387;28;20248;-69
2022/11/05 08:35:35;;;;;;;27.60;16.20;;;;;;;;;;5078956;28;20188;-70
2022/11/05 08:38:03;;;;;;;27.43;15.53;;;;;;;;;;5073174;28;20185;-70
2022/11/05 08:40:31;;;;;;;26.73;15.77;;;;;;;;;;5078417;28;20252;-69
2022/11/05 08:42:57;;;;;;;22.80;14.73;;;;;;;;;;5077638;28;20209;-69
2022/11/05 08:45:24;;;;;;;21.10;14.83;;;;;;;;;;5073329;28;20188;-70
2022/11/05 08:47:49;;;;;;;21.37;13.73;;;;;;;;;;5079855;28;20608;-70
2022/11/05 08:50:15;;;;;;;16.87;12.67;;;;;;;;;;5078139;28;20210;-70
2022/11/05 08:52:40;;;;;;;19.10;12.93;;;;;;;;;;5085876;28;20215;-70
2022/11/05 08:55:06;;;;;;;24.77;13.67;;;;;;;;;;5085496;28;20722;-69
2022/11/05 08:57:31;;;;;;;17.60;13.07;;;;;;;;;;5069975;28;20181;-69
2022/11/05 08:59:57;;;;;;;24.80;13.67;;;;;;;;;;5085422;28;20255;-69
2022/11/05 09:02:22;;;;;;;24.57;12.77;;;;;;;;;;5076310;28;20404;-69
2022/11/05 09:04:47;;;;;;;19.27;11.73;;;;;;;;;;5071020;28;20192;-67
2022/11/05 09:07:13;;;;;;;18.43;12.17;;;;;;;;;;5071293;28;20647;-69
2022/11/05 09:09:38;;;;;;;14.93;10.90;;;;;;;;;;5068779;28;20323;-67
2022/11/05 09:12:03;;;;;;;17.73;11.47;;;;;;;;;;5071197;28;20301;-68
2022/11/05 09:14:30;;;;;;;17.60;11.60;;;;;;;;;;5081035;28;20172;-68
2022/11/05 09:16:55;;;;;;;14.87;11.23;;;;;;;;;;5080308;28;20188;-67
2022/11/05 09:19:21;;;;;;;17.80;9.70;;;;;;;;;;5088598;28;20183;-69
2022/11/05 09:21:46;;;;;;;17.23;10.53;;;;;;;;;;5081755;28;20192;-68
2022/11/05 09:24:12;;;;;;;19.63;10.37;;;;;;;;;;5087385;28;20233;-68
2022/11/05 09:26:37;;;;;;;18.37;10.10;;;;;;;;;;5069235;28;20539;-68
2022/11/05 09:29:02;;;;;;;17.07;9.80;;;;;;;;;;5076440;28;20216;-68
2022/11/05 09:31:28;;;;;;;14.70;9.50;;;;;;;;;;5070298;28;20224;-68
2022/11/05 09:33:53;;;;;;;13.27;8.82;;;;;;;;;;5086236;28;20234;-69
2022/11/05 09:36:18;;;;;;;16.27;9.27;;;;;;;;;;5084626;28;20176;-69
2022/11/05 09:38:44;;;;;;;15.50;9.40;;;;;;;;;;5076853;28;20259;-69
2022/11/05 09:41:19;;;;;;;15.50;8.80;;;;;;;;;;5070970;28;20532;-68
2022/11/05 09:43:49;;;;;;;11.00;8.35;;;;;;;;;;5078439;28;20184;-68
2022/11/05 09:46:19;;;;;;;9.67;7.10;;;;;;;;;;5078516;28;20215;-68
2022/11/05 09:48:50;;;;;;;12.90;8.50;;;;;;;;;;5082697;28;20194;-69
2022/11/05 09:51:17;;;;;;;12.67;6.80;;;;;;;;;;5069425;28;20196;-69
2022/11/05 09:53:43;;;;;;;12.02;6.85;;;;;;;;;;5072088;28;20189;-68
2022/11/05 09:56:20;;;;;;;13.45;7.43;;;;;;;;;;5072996;28;20674;-68
2022/11/05 09:59:01;;;;;;;12.38;7.38;;;;;;;;;;5086234;28;20275;-68
2022/11/05 10:01:36;;;;;;;15.50;7.63;;;;;;;;;;5081177;28;20246;-68
2022/11/05 10:04:11;;;;;;;14.30;7.82;;;;;;;;;;5080245;28;20184;-68
2022/11/05 10:06:44;;;;;;;16.92;8.50;;;;;;;;;;5088536;28;20183;-69
2022/11/05 10:09:20;;;;;;;12.77;7.50;;;;;;;;;;5074102;28;20176;-68
2022/11/05 10:11:53;;;;;;;9.48;7.10;;;;;;;;;;5070730;28;20226;-69
2022/11/05 10:14:32;;;;;;;12.25;7.55;;;;;;;;;;5090422;28;20267;-70
2022/11/05 10:17:07;;;;;;;13.75;7.90;;;;;;;;;;5077680;28;20191;-67
2022/11/05 10:19:46;;;;;;;13.38;7.95;;;;;;;;;;5074585;28;20175;-69
2022/11/05 10:22:15;;;;;;;11.63;6.93;;;;;;;;;;5071403;28;20208;-69
2022/11/05 10:24:45;;;;;;;13.90;7.50;;;;;;;;;;5074385;28;20172;-67
2022/11/05 10:27:26;;;;;;;19.77;7.90;;;;;;;;;;5078746;28;20319;-69
2022/11/05 10:29:52;;;;;;;16.60;7.45;;;;;;;;;;5078140;28;20247;-69
2022/11/05 10:32:30;;;;;;;15.82;7.72;;;;;;;;;;5072448;28;20303;-69
2022/11/05 10:34:59;;;;;;;14.05;7.22;;;;;;;;;;5073108;28;20212;-69
2022/11/05 10:37:25;;;;;;;14.32;7.78;;;;;;;;;;5079922;28;20640;-69
2022/11/05 10:39:51;;;;;;;11.90;7.10;;;;;;;;;;5071113;28;20203;-69
2022/11/05 10:42:40;;;;;;;10.57;7.47;;;;;;;;;;5070558;28;20205;-69
2022/11/05 10:45:28;;;;;;;11.98;7.47;;;;;;;;;;5037887;28;20675;-67
2022/11/05 10:48:04;;;;;;;12.00;7.28;;;;;;;;;;5074019;28;20217;-67
2022/11/05 10:50:29;;;;;;;11.23;7.13;;;;;;;;;;5075127;28;20175;-67
2022/11/05 10:53:01;;;;;;;11.93;7.35;;;;;;;;;;5069563;28;20191;-67
2022/11/05 10:55:48;;;;;;;11.48;7.25;;;;;;;;;;5072463;28;20265;-67
2022/11/05 10:58:19;;;;;;;11.20;6.40;;;;;;;;;;5065935;28;20283;-67
2022/11/05 11:01:09;;;;;;;10.90;6.45;;;;;;;;;;5067983;28;20362;-67
2022/11/05 11:03:51;;;;;;;12.95;6.60;;;;;;;;;;5072410;28;20238;-67
2022/11/05 11:06:26;;;;;;;13.15;5.65;;;;;;;;;;5072180;28;20484;-67
2022/11/05 11:08:55;;;;;;;9.68;5.55;;;;;;;;;;5076194;28;20534;-67
2022/11/05 11:11:32;;;;;;;8.80;5.28;;;;;;;;;;5070348;28;20299;-67
2022/11/05 11:14:12;;;;;;;9.07;5.32;;;;;;;;;;5072841;28;20198;-67
2022/11/05 11:16:40;;;;;;;12.52;5.55;;;;;;;;;;5077280;28;20211;-67
2022/11/05 11:19:44;;;;;;;8.38;5.30;;;;;;;;;;5072069;28;20185;-67
2022/11/05 11:22:17;;;;;;;9.05;4.70;;;;;;;;;;5020712;28;20693;-67
2022/11/05 11:24:46;;;;;;;6.55;5.00;;;;;;;;;;5022349;28;20685;-67
2022/11/05 11:27:26;;;;;;;10.93;5.47;;;;;;;;;;5046812;28;20258;-67
2022/11/05 11:30:03;;;;;;;10.68;5.22;;;;;;;;;;5073208;28;20179;-67
2022/11/05 11:32:38;;;;;;;7.50;4.18;;;;;;;;;;5075022;28;20446;-67
2022/11/05 11:35:07;;;;;;;12.40;5.00;;;;;;;;;;5084312;28;20244;-67
2022/11/05 11:37:36;;;;;;;10.65;5.28;;;;;;;;;;5077548;28;20176;-66
2022/11/05 11:40:11;;;;;;;9.82;5.30;;;;;;;;;;5076900;28;20380;-67
2022/11/05 11:42:39;;;;;;;11.05;5.10;;;;;;;;;;5084783;28;20548;-67
2022/11/05 11:45:15;;;;;;;10.10;4.80;;;;;;;;;;5088777;28;20534;-67
2022/11/05 11:47:43;;;;;;;10.25;5.00;;;;;;;;;;5075527;28;20180;-67
2022/11/05 11:50:34;;;;;;;7.68;4.75;;;;;;;;;;5074756;28;20592;-66
2022/11/05 11:53:20;;;;;;;12.30;4.60;;;;;;;;;;5074797;28;20726;-67
2022/11/05 11:56:10;;;;;;;7.75;4.43;;;;;;;;;;5072142;28;20278;-67
2022/11/05 11:58:35;;;;;;;8.63;5.13;;;;;;;;;;5084103;28;20181;-66
2022/11/05 12:01:30;;;;;;;10.52;4.45;;;;;;;;;;5084666;28;20176;-67
2022/11/05 12:04:11;;;;;;;9.00;4.00;;;;;;;;;;5076537;28;20690;-67
2022/11/05 12:07:00;;;;;;;9.95;4.07;;;;;;;;;;5070489;28;20203;-67
2022/11/05 12:09:44;;;;;;;7.95;4.05;;;;;;;;;;5040852;28;20196;-66
2022/11/05 12:12:12;;;;;;;9.50;3.92;;;;;;;;;;5076314;28;20306;-67
2022/11/05 12:15:02;;;;;;;9.32;3.72;;;;;;;;;;5071909;28;20284;-67
2022/11/05 12:17:42;;;;;;;7.10;3.60;;;;;;;;;;5073918;28;20181;-66
2022/11/05 12:20:20;;;;;;;9.30;4.00;;;;;;;;;;5072334;28;20237;-66
2022/11/05 12:22:58;;;;;;;8.07;3.90;;;;;;;;;;5071751;28;20488;-67
2022/11/05 12:25:58;;;;;;;7.71;3.54;;;;;;;;;;4368098;28;10021684;-67
2022/11/05 12:28:36;;;;;;;9.68;4.15;;;;;;;;;;5082696;28;20180;-67
2022/11/05 12:31:20;;;;;;;7.15;4.47;;;;;;;;;;5084939;28;20440;-67
2022/11/05 12:33:51;;;;;;;9.80;4.80;;;;;;;;;;5084719;28;20180;-68
2022/11/05 12:36:29;;;;;;;10.43;5.10;;;;;;;;;;5080419;28;20694;-67
2022/11/05 12:39:25;;;;;;;14.15;4.95;;;;;;;;;;5077934;28;20259;-67
2022/11/05 12:42:06;;;;;;;6.50;4.47;;;;;;;;;;5077621;28;20251;-67
2022/11/05 12:44:54;;;;;;;11.52;5.32;;;;;;;;;;5078093;28;20183;-67
2022/11/05 12:47:37;;;;;;;8.98;5.10;;;;;;;;;;5067439;28;20186;-67
2022/11/05 12:50:21;;;;;;;7.30;4.97;;;;;;;;;;5071268;28;20189;-67
2022/11/05 12:53:12;;;;;;;9.30;4.80;;;;;;;;;;5068378;28;20185;-67
2022/11/05 12:55:39;;;;;;;8.35;5.28;;;;;;;;;;5068904;28;20546;-67
2022/11/05 12:58:46;;;;;;;9.20;5.25;;;;;;;;;;5072443;28;20187;-68
2022/11/05 13:01:18;;;;;;;8.45;4.78;;;;;;;;;;5007728;28;20853;-67
2022/11/05 13:03:46;;;;;;;9.88;5.35;;;;;;;;;;5066798;28;20749;-67
2022/11/05 13:06:15;;;;;;;9.27;5.70;;;;;;;;;;5067985;28;20192;-67
2022/11/05 13:08:46;;;;;;;9.13;5.13;;;;;;;;;;5080328;28;20200;-67
2022/11/05 13:11:21;;;;;;;10.00;5.30;;;;;;;;;;5070884;28;20223;-67
2022/11/05 13:14:12;;;;;;;11.55;5.40;;;;;;;;;;5076270;28;20183;-67
2022/11/05 13:16:43;;;;;;;9.30;5.63;;;;;;;;;;5077338;28;20185;-68
2022/11/05 13:19:27;;;;;;;10.10;5.63;;;;;;;;;;5079169;28;20172;-67
2022/11/05 13:21:58;;;;;;;10.40;5.38;;;;;;;;;;5079862;28;20640;-67
2022/11/05 13:24:29;;;;;;;9.60;5.03;;;;;;;;;;5079116;28;20221;-67
2022/11/05 13:26:58;;;;;;;8.50;4.95;;;;;;;;;;5077324;28;20791;-68
2022/11/05 13:29:30;;;;;;;12.55;5.70;;;;;;;;;;5075992;28;20275;-67
2022/11/05 13:32:24;;;;;;;10.52;5.18;;;;;;;;;;5078312;28;20263;-67
2022/11/05 13:34:53;;;;;;;8.93;5.53;;;;;;;;;;5077871;28;20184;-67
2022/11/05 13:40:12;;;;;;;8.25;4.50;;;;;;;;;;5066735;28;20766;-67
2022/11/05 13:43:04;;;;;;;8.65;5.03;;;;;;;;;;5079840;28;20188;-68
2022/11/05 13:46:02;;;;;;;8.23;4.80;;;;;;;;;;5079194;28;20184;-67
2022/11/05 13:48:51;;;;;;;8.88;4.47;;;;;;;;;;5075912;28;20686;-68
2022/11/05 13:51:43;;;;;;;8.07;4.50;;;;;;;;;;5075941;28;20380;-67
2022/11/05 13:54:34;;;;;;;8.05;4.72;;;;;;;;;;5081278;28;20250;-67
2022/11/05 13:57:17;;;;;;;7.80;4.38;;;;;;;;;;5077104;28;20184;-67
2022/11/05 13:59:53;;;;;;;7.78;4.82;;;;;;;;;;5078109;28;20294;-67
2022/11/05 14:02:26;;;;;;;9.15;4.85;;;;;;;;;;5077057;28;20207;-67
2022/11/05 14:04:57;;;;;;;8.70;4.65;;;;;;;;;;5069406;28;20184;-67
2022/11/05 14:07:26;;;;;;;6.85;5.18;;;;;;;;;;5071636;28;20188;-67
2022/11/05 14:09:59;;;;;;;10.13;4.60;;;;;;;;;;5070013;28;20248;-67
2022/11/05 14:12:30;;;;;;;8.00;4.50;;;;;;;;;;5067359;28;20180;-67
2022/11/05 14:15:02;;;;;;;11.55;6.10;;;;;;;;;;5071666;28;20180;-68
2022/11/05 14:17:32;;;;;;;10.88;6.95;;;;;;;;;;5070138;28;20179;-67
2022/11/05 14:20:04;;;;;;;9.20;5.43;;;;;;;;;;5083221;28;20224;-67
2022/11/05 14:22:32;;;;;;;12.00;6.22;;;;;;;;;;5079785;28;20199;-67
2022/11/05 14:25:16;;;;;;;7.80;4.85;;;;;;;;;;5067764;28;20564;-67
2022/11/05 14:27:44;;;;;;;10.18;4.43;;;;;;;;;;5062938;28;20204;-67
2022/11/05 14:30:42;;;;;;;14.07;5.75;;;;;;;;;;5069730;28;20184;-67
2022/11/05 14:33:31;;;;;;;10.77;5.60;;;;;;;;;;5074053;28;20319;-67
2022/11/05 14:36:18;;;;;;;10.70;6.32;;;;;;;;;;5077843;28;20196;-67
2022/11/05 14:38:53;;;;;;;10.77;5.90;;;;;;;;;;5078607;28;20599;-67
2022/11/05 14:41:19;;;;;;;11.95;5.47;;;;;;;;;;5073112;28;20191;-67
2022/11/05 14:44:05;;;;;;;11.02;5.55;;;;;;;;;;5076773;28;20195;-67
2022/11/05 14:46:52;;;;;;;19.80;6.20;;;;;;;;;;5076796;28;20705;-67
2022/11/05 14:49:22;;;;;;;8.25;4.85;;;;;;;;;;5067141;28;20583;-67
2022/11/05 14:51:54;;;;;;;11.23;5.68;;;;;;;;;;5072929;28;20267;-67
2022/11/05 14:54:25;;;;;;;11.00;5.88;;;;;;;;;;5073025;28;20199;-67
2022/11/05 14:56:56;;;;;;;10.00;5.68;;;;;;;;;;5074562;28;20217;-67
2022/11/05 14:59:30;;;;;;;14.98;6.50;;;;;;;;;;5067973;28;20271;-67
2022/11/05 15:02:00;;;;;;;8.75;5.50;;;;;;;;;;5074118;28;21011;-67
2022/11/05 15:04:25;;;;;;;12.18;5.80;;;;;;;;;;5074962;28;20659;-67
2022/11/05 15:07:03;;;;;;;11.95;5.53;;;;;;;;;;5077265;28;20184;-67
2022/11/05 15:09:35;;;;;;;7.55;5.63;;;;;;;;;;5082751;28;20215;-68
2022/11/05 15:12:38;;;;;;;14.30;6.30;;;;;;;;;;5076170;28;20250;-67
2022/11/05 15:15:19;;;;;;;12.77;9.23;;;;;;;;;;5085922;28;20189;-68
2022/11/05 15:17:51;;;;;;;12.15;7.53;;;;;;;;;;5082108;28;20203;-67
2022/11/05 15:20:22;;;;;;;10.18;6.50;;;;;;;;;;5078926;28;20172;-68
2022/11/05 15:22:57;;;;;;;11.32;6.05;;;;;;;;;;5076396;28;20231;-67
2022/11/05 15:25:29;;;;;;;8.65;5.70;;;;;;;;;;5081596;28;21067;-67
2022/11/05 15:28:02;;;;;;;13.57;5.90;;;;;;;;;;5084050;28;20709;-67
2022/11/05 15:30:27;;;;;;;9.82;5.45;;;;;;;;;;5077680;28;20181;-67
2022/11/05 15:32:53;;;;;;;15.00;6.78;;;;;;;;;;5077891;28;20222;-68
2022/11/05 15:35:20;;;;;;;13.02;6.05;;;;;;;;;;5079539;28;20218;-67